Time;durP1;ratioP1;P1;durP2;ratioP2;P2;SDS_P1;SDS_P2;PMS_P1;PMS_P2;Temp;Humidity;BMP_temperature;BMP_pressure;BME280_temperature;BME280_humidity;BME280_pressure;Samples;Min_cycle;Max_cycle;Signal;HPM_P1;HPM_P2
2021/08/14 00:00:52;;;;;;;12.20;7.28;;;;;;;22.01;65.56;100397.19;1627044;47;20066;-79
2021/08/14 00:02:26;;;;;;;10.90;7.35;;;;;;;22.04;65.48;100399.47;1627556;54;20164;-79
2021/08/14 00:04:00;;;;;;;9.57;7.07;;;;;;;22.05;65.28;100395.72;1626696;54;20042;-78
2021/08/14 00:05:33;;;;;;;9.20;7.20;;;;;;;22.04;65.01;100394.03;1627204;47;20034;-79
2021/08/14 00:07:07;;;;;;;12.18;7.25;;;;;;;22.04;65.24;100396.75;1627267;46;20035;-78
2021/08/14 00:08:41;;;;;;;10.25;7.47;;;;;;;22.02;65.53;100391.53;1627050;54;20094;-78
2021/08/14 00:10:14;;;;;;;11.18;7.20;;;;;;;21.99;65.36;100397.38;1627481;54;20039;-78
2021/08/14 00:11:48;;;;;;;9.23;6.68;;;;;;;21.93;65.59;100399.06;1627007;54;20023;-79
2021/08/14 00:13:22;;;;;;;9.60;7.07;;;;;;;21.90;65.90;100394.06;1627073;54;20117;-79
2021/08/14 00:14:55;;;;;;;8.25;6.35;;;;;;;21.89;65.63;100392.41;1626835;47;20090;-79
2021/08/14 00:16:30;;;;;;;8.63;6.57;;;;;;;21.96;65.44;100395.94;1626839;54;20042;-78
2021/08/14 00:18:04;;;;;;;13.75;6.95;;;;;;;22.00;65.18;100388.19;1627360;47;20126;-79
2021/08/14 00:19:38;;;;;;;11.75;7.38;;;;;;;22.02;65.32;100390.69;1626598;47;20038;-79
2021/08/14 00:21:12;;;;;;;9.95;6.65;;;;;;;22.05;65.12;100395.72;1627470;54;20128;-79
2021/08/14 00:22:45;;;;;;;9.55;7.00;;;;;;;22.06;65.29;100397.38;1627204;54;20038;-79
2021/08/14 00:24:19;;;;;;;9.80;6.93;;;;;;;22.10;65.31;100394.03;1627691;54;20137;-79
2021/08/14 00:25:55;;;;;;;11.00;7.00;;;;;;;22.08;65.18;100390.66;1628726;39;20552;-80
2021/08/14 00:27:28;;;;;;;12.80;6.55;;;;;;;22.06;65.70;100386.50;1625081;47;20054;-78
2021/08/14 00:29:02;;;;;;;9.40;6.38;;;;;;;22.02;65.90;100396.13;1624724;54;20026;-78
2021/08/14 00:30:36;;;;;;;9.25;6.85;;;;;;;22.06;65.83;100394.66;1624533;47;20121;-78
2021/08/14 00:32:11;;;;;;;8.30;6.53;;;;;;;22.09;65.46;100397.78;1624026;47;20041;-78
2021/08/14 00:33:44;;;;;;;8.77;6.25;;;;;;;22.08;65.31;100395.28;1623697;47;20039;-78
2021/08/14 00:35:18;;;;;;;9.85;6.85;;;;;;;22.04;65.55;100394.03;1624824;39;20451;-79
2021/08/14 00:36:51;;;;;;;8.40;6.47;;;;;;;21.93;65.89;100392.81;1624843;54;20048;-78
2021/08/14 00:38:25;;;;;;;8.93;6.57;;;;;;;21.84;66.22;100391.34;1630511;47;20111;-79
2021/08/14 00:39:59;;;;;;;8.80;6.32;;;;;;;21.80;65.97;100393.66;1631353;54;20069;-78
2021/08/14 00:41:33;;;;;;;10.07;6.85;;;;;;;21.78;66.35;100398.47;1630689;31;20514;-78
2021/08/14 00:43:06;;;;;;;10.13;6.40;;;;;;;21.73;66.19;100392.81;1625847;47;20575;-78
2021/08/14 00:44:40;;;;;;;10.35;6.72;;;;;;;21.68;66.68;100395.34;1624722;47;20031;-78
2021/08/14 00:46:15;;;;;;;10.95;7.35;;;;;;;21.61;66.76;100393.47;1624555;54;20046;-79
2021/08/14 00:47:51;;;;;;;9.07;6.30;;;;;;;21.49;67.27;100389.66;1623611;47;20034;-78
2021/08/14 00:49:24;;;;;;;8.60;6.07;;;;;;;21.39;67.44;100390.06;1625243;47;20040;-79
2021/08/14 00:50:59;;;;;;;7.90;6.05;;;;;;;21.39;67.42;100386.50;1625097;39;20502;-79
2021/08/14 00:52:32;;;;;;;9.07;6.30;;;;;;;21.43;67.56;100388.59;1625342;47;20042;-79
2021/08/14 00:54:06;;;;;;;8.90;6.57;;;;;;;21.48;67.24;100388.81;1624640;47;20129;-78
2021/08/14 00:55:43;;;;;;;13.32;7.47;;;;;;;21.48;66.98;100387.97;1625394;39;20433;-79
2021/08/14 00:57:18;;;;;;;9.98;6.18;;;;;;;21.43;67.44;100393.22;1623437;54;20040;-79
2021/08/14 00:58:53;;;;;;;8.50;6.43;;;;;;;21.42;67.08;100386.91;1624143;46;20093;-79
2021/08/14 01:00:27;;;;;;;9.95;6.57;;;;;;;21.43;67.16;100382.34;1624500;54;20030;-79
2021/08/14 01:02:01;;;;;;;13.38;7.20;;;;;;;21.44;67.34;100381.28;1624989;47;20103;-79
2021/08/14 01:03:36;;;;;;;10.40;6.78;;;;;;;21.44;67.17;100384.84;1623097;47;20034;-79
2021/08/14 01:05:12;;;;;;;9.73;6.20;;;;;;;21.44;67.58;100381.28;1624362;54;20031;-79
2021/08/14 01:06:45;;;;;;;8.30;5.90;;;;;;;21.45;67.27;100385.66;1623995;47;20030;-79
2021/08/14 01:08:19;;;;;;;9.98;6.78;;;;;;;21.47;67.32;100378.13;1624893;54;20137;-80
2021/08/14 01:09:53;;;;;;;9.98;7.20;;;;;;;21.49;67.31;100382.31;1624820;39;20499;-79
2021/08/14 01:11:26;;;;;;;11.88;7.18;;;;;;;21.50;66.94;100381.28;1624836;54;20034;-79
2021/08/14 01:13:01;;;;;;;9.32;6.70;;;;;;;21.49;67.39;100385.03;1625245;39;20452;-79
2021/08/14 01:14:35;;;;;;;10.27;6.60;;;;;;;21.50;67.42;100383.16;1625083;54;20038;-79
2021/08/14 01:16:10;;;;;;;10.63;7.15;;;;;;;21.51;67.39;100384.84;1624562;47;20544;-79
2021/08/14 01:17:44;;;;;;;8.48;6.82;;;;;;;21.53;67.20;100379.19;1624672;47;20037;-79
2021/08/14 01:19:19;;;;;;;10.20;6.68;;;;;;;21.51;67.70;100373.97;1624615;54;20125;-79
2021/08/14 01:20:53;;;;;;;10.60;6.60;;;;;;;21.53;67.52;100380.03;1624249;47;20041;-80
2021/08/14 01:22:27;;;;;;;8.75;6.47;;;;;;;21.49;67.60;100379.59;1624818;47;20043;-79
2021/08/14 01:24:00;;;;;;;8.55;6.82;;;;;;;21.50;67.69;100380.44;1626083;54;20659;-79
2021/08/14 01:25:34;;;;;;;12.20;7.10;;;;;;;21.52;67.55;100386.53;1625283;47;20054;-79
2021/08/14 01:27:10;;;;;;;11.75;7.32;;;;;;;21.55;67.54;100377.09;1625783;47;20030;-79
2021/08/14 01:28:45;;;;;;;10.30;6.70;;;;;;;21.56;67.63;100378.78;1625847;39;20436;-79
2021/08/14 01:30:18;;;;;;;10.05;6.90;;;;;;;21.56;67.29;100387.75;1625864;47;20127;-79
2021/08/14 01:31:52;;;;;;;10.73;7.07;;;;;;;21.53;67.60;100377.31;1626733;39;20337;-79
2021/08/14 01:33:27;;;;;;;10.07;6.85;;;;;;;21.50;67.55;100381.28;1623922;47;20038;-79
2021/08/14 01:35:00;;;;;;;10.70;8.13;;;;;;;21.47;67.34;100379.00;1624868;54;20045;-79
2021/08/14 01:36:34;;;;;;;11.98;7.75;;;;;;;21.44;67.39;100381.28;1624746;54;20042;-79
2021/08/14 01:38:09;;;;;;;11.63;7.18;;;;;;;21.41;67.98;100381.69;1625737;39;20430;-79
2021/08/14 01:39:42;;;;;;;13.23;7.20;;;;;;;21.39;67.96;100376.47;1624665;54;20133;-79
2021/08/14 01:41:17;;;;;;;12.20;7.40;;;;;;;21.35;67.89;100377.94;1625075;54;20031;-79
2021/08/14 01:42:52;;;;;;;13.30;7.43;;;;;;;21.34;67.80;100379.81;1624175;39;20927;-79
2021/08/14 01:44:26;;;;;;;10.75;7.38;;;;;;;21.32;67.92;100384.63;1624598;47;20569;-79
2021/08/14 01:46:00;;;;;;;9.05;6.88;;;;;;;21.30;67.76;100383.16;1624573;47;20031;-79
2021/08/14 01:47:34;;;;;;;10.50;7.10;;;;;;;21.26;67.94;100380.00;1624874;54;20041;-79
2021/08/14 01:49:07;;;;;;;13.25;7.57;;;;;;;21.19;67.89;100376.44;1625222;31;20534;-79
2021/08/14 01:50:41;;;;;;;9.82;6.82;;;;;;;21.17;67.87;100379.38;1625006;47;20604;-79
2021/08/14 01:52:16;;;;;;;9.88;6.93;;;;;;;21.16;68.05;100374.16;1624636;46;20543;-80
2021/08/14 01:53:48;;;;;;;9.05;7.63;;;;;;;21.13;67.83;100372.66;1625445;54;20061;-79
2021/08/14 01:55:21;;;;;;;10.13;7.47;;;;;;;21.08;68.23;100368.88;1624012;47;20041;-79
2021/08/14 01:56:55;;;;;;;9.57;7.32;;;;;;;21.06;68.40;100374.53;1625106;54;20041;-79
2021/08/14 01:58:30;;;;;;;10.18;7.05;;;;;;;21.08;68.42;100368.88;1624422;54;20031;-79
2021/08/14 02:00:03;;;;;;;10.23;6.88;;;;;;;21.10;68.45;100369.53;1624421;54;20049;-79
2021/08/14 02:01:37;;;;;;;9.63;6.70;;;;;;;21.09;68.44;100368.72;1625215;39;20531;-79
2021/08/14 02:03:11;;;;;;;9.68;7.20;;;;;;;21.09;68.71;100362.41;1624820;54;20058;-79
2021/08/14 02:04:44;;;;;;;12.88;7.43;;;;;;;21.04;68.71;100366.59;1625180;47;20042;-79
2021/08/14 02:06:20;;;;;;;10.88;6.90;;;;;;;21.03;68.92;100362.22;1624205;54;20049;-79
2021/08/14 02:07:53;;;;;;;9.80;7.38;;;;;;;21.04;68.92;100363.88;1623637;47;20043;-80
2021/08/14 02:09:24;;;;;;;10.57;6.95;;;;;;;21.03;68.60;100359.50;1624493;47;20137;-79
2021/08/14 02:10:58;;;;;;;11.02;7.07;;;;;;;21.04;68.66;100344.88;1624972;47;20860;-79
2021/08/14 02:12:32;;;;;;;10.82;7.05;;;;;;;21.00;69.00;100356.34;1624792;54;20648;-79
2021/08/14 02:14:07;;;;;;;12.60;7.60;;;;;;;20.98;69.01;100353.00;1623692;47;20034;-79
2021/08/14 02:15:41;;;;;;;9.50;6.95;;;;;;;20.97;69.10;100354.88;1624383;47;20030;-78
2021/08/14 02:17:14;;;;;;;10.88;8.05;;;;;;;20.98;69.25;100353.81;1624885;54;20034;-79
2021/08/14 02:18:49;;;;;;;10.13;7.32;;;;;;;20.98;69.21;100353.81;1625644;47;20038;-80
2021/08/14 02:20:23;;;;;;;9.88;7.68;;;;;;;20.98;69.15;100353.81;1625023;47;20683;-79
2021/08/14 02:21:56;;;;;;;8.80;6.68;;;;;;;20.98;69.33;100351.09;1624406;39;20530;-79
2021/08/14 02:23:28;;;;;;;14.88;7.43;;;;;;;20.97;69.11;100352.16;1625044;39;20718;-79
2021/08/14 02:25:01;;;;;;;9.40;6.85;;;;;;;20.98;69.16;100356.53;1624900;47;20038;-79
2021/08/14 02:26:35;;;;;;;9.23;7.07;;;;;;;20.98;69.13;100353.00;1624700;54;20030;-79
2021/08/14 02:28:09;;;;;;;9.80;7.25;;;;;;;20.91;69.70;100363.84;1624219;54;20049;-79
2021/08/14 02:29:43;;;;;;;10.85;7.50;;;;;;;20.89;69.85;100355.06;1624102;46;20166;-79
2021/08/14 02:31:17;;;;;;;10.48;7.10;;;;;;;20.87;69.59;100352.56;1624747;46;20034;-79
2021/08/14 02:32:51;;;;;;;17.05;8.25;;;;;;;20.85;69.63;100359.25;1624252;47;20034;-79
2021/08/14 02:34:25;;;;;;;10.68;7.28;;;;;;;20.81;70.15;100357.97;1623827;47;20037;-79
2021/08/14 02:35:58;;;;;;;9.73;7.63;;;;;;;20.69;70.38;100361.25;1625334;47;20030;-79
2021/08/14 02:37:32;;;;;;;10.60;7.30;;;;;;;20.51;71.04;100355.53;1625450;54;20126;-79
2021/08/14 02:39:06;;;;;;;12.60;8.05;;;;;;;20.41;71.32;100370.31;1625471;47;20041;-80
2021/08/14 02:40:37;;;;;;;11.57;7.75;;;;;;;20.34;71.83;100368.63;1623683;47;20034;-79
2021/08/14 02:42:15;;;;;;;11.43;7.45;;;;;;;20.27;71.66;100368.59;1624517;47;20039;-79
2021/08/14 02:43:50;;;;;;;9.77;7.65;;;;;;;20.17;71.97;100368.13;1623961;54;20039;-79
2021/08/14 02:45:25;;;;;;;11.02;7.28;;;;;;;20.06;72.59;100372.25;1623466;54;20130;-79
2021/08/14 02:46:59;;;;;;;11.95;7.00;;;;;;;19.98;72.62;100373.22;1624697;39;20437;-80
2021/08/14 02:48:33;;;;;;;11.25;7.80;;;;;;;19.95;73.09;100365.47;1624663;47;20073;-79
2021/08/14 02:50:06;;;;;;;11.15;8.00;;;;;;;19.93;73.26;100364.88;1624300;47;20064;-79
2021/08/14 02:51:41;;;;;;;12.73;7.40;;;;;;;19.90;73.34;100371.50;1624432;47;20038;-79
2021/08/14 02:53:16;;;;;;;12.02;6.88;;;;;;;19.86;73.25;100369.38;1624052;47;20094;-79
2021/08/14 02:54:50;;;;;;;12.27;7.95;;;;;;;19.82;73.57;100368.91;1624586;47;20030;-79
2021/08/14 02:56:23;;;;;;;10.23;8.30;;;;;;;19.78;73.74;100373.91;1625898;39;20413;-78
2021/08/14 02:57:57;;;;;;;11.35;7.72;;;;;;;19.72;73.58;100374.69;1624921;47;20030;-79
2021/08/14 02:59:30;;;;;;;12.60;8.32;;;;;;;19.71;73.85;100369.44;1623671;47;20045;-79
2021/08/14 03:01:05;;;;;;;13.52;7.53;;;;;;;19.69;73.66;100377.78;1624795;47;20031;-79
2021/08/14 03:02:36;;;;;;;13.13;7.90;;;;;;;19.66;73.79;100378.19;1623441;46;20035;-79
2021/08/14 03:04:10;;;;;;;12.93;8.02;;;;;;;19.61;73.99;100380.66;1624931;47;20146;-79
2021/08/14 03:05:41;;;;;;;10.95;7.90;;;;;;;19.60;74.03;100378.97;1625046;39;20585;-79
2021/08/14 03:07:15;;;;;;;11.35;8.50;;;;;;;19.56;74.16;100378.53;1623363;47;20034;-79
2021/08/14 03:08:48;;;;;;;11.85;7.93;;;;;;;19.53;74.54;100378.09;1624251;54;20122;-79
2021/08/14 03:10:19;;;;;;;11.18;8.55;;;;;;;19.51;74.53;100374.72;1624299;47;20042;-79
2021/08/14 03:11:53;;;;;;;12.23;8.65;;;;;;;19.47;74.76;100375.09;1624636;54;20696;-79
2021/08/14 03:13:26;;;;;;;10.15;7.90;;;;;;;19.48;74.48;100371.38;1624566;54;20121;-79
2021/08/14 03:15:00;;;;;;;12.38;7.45;;;;;;;19.49;74.51;100370.34;1624233;54;20035;-79
2021/08/14 03:16:35;;;;;;;8.65;6.57;;;;;;;19.55;74.46;100370.59;1623187;47;20137;-79
2021/08/14 03:18:09;;;;;;;8.90;7.25;;;;;;;19.59;74.00;100372.72;1625079;39;20782;-79
2021/08/14 03:19:43;;;;;;;9.73;7.22;;;;;;;19.54;74.27;100364.31;1624448;46;20090;-80
2021/08/14 03:21:16;;;;;;;12.02;8.45;;;;;;;19.51;74.36;100367.41;1624846;47;20039;-79
2021/08/14 03:22:50;;;;;;;10.10;7.60;;;;;;;19.46;74.35;100368.00;1624789;47;20035;-79
2021/08/14 03:24:23;;;;;;;10.25;7.80;;;;;;;19.44;74.76;100374.66;1626184;47;20138;-79
2021/08/14 03:25:57;;;;;;;11.65;8.43;;;;;;;19.44;74.78;100369.25;1624960;47;20034;-80
2021/08/14 03:27:28;;;;;;;9.70;7.00;;;;;;;19.38;74.71;100370.88;1624145;47;20034;-79
2021/08/14 03:29:02;;;;;;;10.60;7.93;;;;;;;19.39;74.90;100367.13;1625237;54;20034;-79
2021/08/14 03:30:35;;;;;;;9.63;7.85;;;;;;;19.40;74.79;100363.38;1626056;54;20149;-80
2021/08/14 03:32:17;;;;;;;12.32;8.43;;;;;;;19.40;74.49;100371.50;1625446;47;20041;-80
2021/08/14 03:33:51;;;;;;;10.13;7.72;;;;;;;19.39;74.72;100366.28;1626706;54;20961;-79
2021/08/14 03:35:25;;;;;;;12.10;8.88;;;;;;;19.39;74.50;100367.13;1626630;47;20031;-80
2021/08/14 03:36:58;;;;;;;10.90;7.72;;;;;;;19.35;75.01;100368.56;1626061;54;20030;-80
2021/08/14 03:38:32;;;;;;;11.07;8.32;;;;;;;19.33;75.00;100367.91;1626280;47;20598;-80
2021/08/14 03:40:08;;;;;;;11.75;8.45;;;;;;;19.29;75.09;100366.59;1626047;47;20050;-80
2021/08/14 03:41:41;;;;;;;15.10;7.85;;;;;;;19.22;75.39;100365.72;1624081;47;20031;-79
2021/08/14 03:43:18;;;;;;;11.57;6.75;;;;;;;19.16;75.61;100368.19;1624444;47;20055;-79
2021/08/14 03:44:53;;;;;;;11.05;7.57;;;;;;;19.12;75.70;100361.47;1625140;39;20465;-79
2021/08/14 03:46:27;;;;;;;10.55;7.85;;;;;;;19.09;75.52;100364.53;1624089;47;20049;-79
2021/08/14 03:48:01;;;;;;;9.43;7.88;;;;;;;19.06;76.15;100369.50;1625186;47;20031;-79
2021/08/14 03:49:35;;;;;;;11.93;7.72;;;;;;;19.04;75.89;100369.72;1625378;47;20030;-79
2021/08/14 03:51:09;;;;;;;14.27;8.32;;;;;;;19.02;76.28;100366.34;1624222;47;20141;-79
2021/08/14 03:52:43;;;;;;;10.40;7.65;;;;;;;19.01;76.00;100372.81;1625256;47;20023;-79
2021/08/14 03:54:16;;;;;;;11.13;7.50;;;;;;;18.99;75.95;100370.28;1625424;47;20628;-79
2021/08/14 03:55:50;;;;;;;13.15;7.88;;;;;;;18.97;75.97;100366.09;1625722;51;20029;-79
2021/08/14 03:57:25;;;;;;;9.32;7.57;;;;;;;18.94;76.50;100371.91;1624013;49;20042;-79
2021/08/14 03:58:59;;;;;;;13.27;7.70;;;;;;;18.93;76.56;100370.22;1625336;46;20023;-79
2021/08/14 04:00:32;;;;;;;10.32;7.90;;;;;;;18.86;76.53;100370.97;1625661;54;20044;-79
2021/08/14 04:02:06;;;;;;;11.27;8.00;;;;;;;18.83;76.79;100373.22;1624177;47;20034;-79
2021/08/14 04:03:41;;;;;;;9.82;7.22;;;;;;;18.82;76.92;100368.81;1625253;47;20026;-79
2021/08/14 04:05:15;;;;;;;9.68;8.05;;;;;;;18.84;76.89;100375.72;1625609;54;20029;-79
2021/08/14 04:06:49;;;;;;;11.43;8.20;;;;;;;18.85;76.40;100372.00;1625302;47;20090;-79
2021/08/14 04:08:23;;;;;;;11.07;7.72;;;;;;;18.83;76.74;100368.63;1625784;47;20034;-79
2021/08/14 04:09:56;;;;;;;9.68;6.95;;;;;;;18.82;76.86;100366.13;1624465;54;20695;-79
2021/08/14 04:11:30;;;;;;;11.93;8.52;;;;;;;18.81;76.63;100367.16;1625155;39;20446;-79
2021/08/14 04:13:04;;;;;;;11.90;8.48;;;;;;;18.79;76.95;100369.19;1625216;54;20157;-79
2021/08/14 04:14:38;;;;;;;13.45;7.72;;;;;;;18.78;76.54;100371.09;1625844;54;20029;-80
2021/08/14 04:16:12;;;;;;;12.75;8.18;;;;;;;18.79;76.63;100372.75;1625827;47;20537;-80
2021/08/14 04:17:45;;;;;;;19.80;7.97;;;;;;;18.79;76.62;100377.31;1624748;54;20121;-80
2021/08/14 04:19:20;;;;;;;10.63;8.38;;;;;;;18.80;76.68;100379.84;1625165;54;20031;-80
2021/08/14 04:20:54;;;;;;;9.38;7.35;;;;;;;18.79;76.78;100378.19;1624421;54;20034;-80
2021/08/14 04:22:28;;;;;;;12.27;8.10;;;;;;;18.78;76.72;100378.34;1625201;54;20042;-80
2021/08/14 04:24:02;;;;;;;11.30;7.18;;;;;;;18.77;76.64;100376.66;1625008;47;20057;-79
2021/08/14 04:25:35;;;;;;;10.10;7.55;;;;;;;18.78;76.54;100381.91;1624961;54;20040;-79
2021/08/14 04:27:09;;;;;;;10.25;7.45;;;;;;;18.79;76.50;100371.91;1625401;47;20030;-80
2021/08/14 04:28:40;;;;;;;12.05;8.38;;;;;;;18.79;76.82;100378.19;1624996;54;20049;-79
2021/08/14 04:30:15;;;;;;;10.13;7.78;;;;;;;18.79;76.49;100383.59;1625684;54;20038;-79
2021/08/14 04:31:48;;;;;;;15.00;8.70;;;;;;;18.79;76.73;100378.19;1625181;47;20553;-80
2021/08/14 04:33:22;;;;;;;9.90;6.70;;;;;;;18.83;76.49;100374.03;1625065;47;20038;-80
2021/08/14 04:34:57;;;;;;;9.48;7.25;;;;;;;18.85;76.29;100377.41;1624676;47;20034;-80
2021/08/14 04:36:31;;;;;;;9.65;7.88;;;;;;;18.89;76.27;100366.19;1625110;47;20061;-79
2021/08/14 04:38:05;;;;;;;15.52;8.20;;;;;;;18.92;76.16;100371.22;1625579;54;20069;-79
2021/08/14 04:39:38;;;;;;;10.10;7.38;;;;;;;18.94;75.94;100371.91;1624658;47;20069;-79
2021/08/14 04:41:12;;;;;;;9.57;7.25;;;;;;;18.91;76.25;100374.94;1625591;47;20036;-80
2021/08/14 04:42:43;;;;;;;10.55;7.07;;;;;;;18.93;75.94;100373.78;1625516;47;20165;-79
2021/08/14 04:44:17;;;;;;;9.98;6.53;;;;;;;18.95;76.06;100381.72;1625459;47;20030;-80
2021/08/14 04:45:51;;;;;;;9.43;7.15;;;;;;;18.99;76.03;100372.16;1626120;54;20034;-80
2021/08/14 04:47:22;;;;;;;10.63;7.43;;;;;;;19.04;76.19;100369.72;1625545;47;20041;-79
2021/08/14 04:48:56;;;;;;;11.00;7.47;;;;;;;19.09;75.99;100372.66;1624582;54;20125;-79
2021/08/14 04:50:31;;;;;;;9.50;7.28;;;;;;;19.14;75.49;100367.53;1626078;39;20528;-79
2021/08/14 04:52:05;;;;;;;10.88;7.05;;;;;;;19.17;75.40;100382.56;1625473;47;20037;-79
2021/08/14 04:53:39;;;;;;;8.82;6.90;;;;;;;19.21;75.32;100374.88;1625557;54;20040;-79
2021/08/14 04:55:13;;;;;;;10.35;7.40;;;;;;;19.23;75.27;100368.22;1625767;54;20038;-79
2021/08/14 04:56:47;;;;;;;12.40;7.60;;;;;;;19.29;74.98;100370.19;1625676;47;20031;-79
2021/08/14 04:58:21;;;;;;;12.40;7.53;;;;;;;19.33;74.90;100373.34;1625870;47;20030;-80
2021/08/14 04:59:55;;;;;;;11.95;7.95;;;;;;;19.37;75.23;100374.59;1625855;54;20027;-80
2021/08/14 05:01:29;;;;;;;8.88;6.63;;;;;;;19.38;74.96;100373.56;1625709;47;20030;-79
2021/08/14 05:03:02;;;;;;;11.80;7.75;;;;;;;19.40;74.92;100371.50;1624599;47;20042;-79
2021/08/14 05:04:36;;;;;;;11.52;7.47;;;;;;;19.46;74.61;100376.16;1625228;47;20030;-79
2021/08/14 05:06:11;;;;;;;11.50;8.48;;;;;;;19.49;74.86;100383.91;1624761;54;20034;-79
2021/08/14 05:07:45;;;;;;;11.13;8.02;;;;;;;19.51;74.61;100382.88;1625044;47;20031;-79
2021/08/14 05:09:18;;;;;;;9.30;7.28;;;;;;;19.48;74.55;100379.50;1625133;47;20037;-79
2021/08/14 05:10:53;;;;;;;13.98;8.18;;;;;;;19.51;74.55;100383.69;1625130;54;20040;-79
2021/08/14 05:12:27;;;;;;;12.25;7.45;;;;;;;19.51;74.42;100391.81;1624590;47;20035;-79
2021/08/14 05:14:01;;;;;;;12.90;9.15;;;;;;;19.53;74.41;100383.50;1625462;54;20043;-79
2021/08/14 05:15:34;;;;;;;12.48;8.15;;;;;;;19.45;74.59;100385.34;1624322;47;20061;-79
2021/08/14 05:17:11;;;;;;;11.20;8.07;;;;;;;19.40;74.65;100385.06;1625310;47;20037;-79
2021/08/14 05:18:44;;;;;;;12.43;7.45;;;;;;;19.41;74.34;100385.91;1625504;54;20048;-80
2021/08/14 05:20:18;;;;;;;14.07;8.27;;;;;;;19.44;74.33;100383.66;1626144;54;20048;-80
2021/08/14 05:21:53;;;;;;;13.95;8.05;;;;;;;19.47;73.98;100380.53;1625756;47;20034;-80
2021/08/14 05:23:27;;;;;;;12.00;8.55;;;;;;;19.51;73.89;100386.41;1626178;39;20448;-79
2021/08/14 05:25:01;;;;;;;13.60;8.23;;;;;;;19.52;73.93;100379.94;1626171;39;20441;-79
2021/08/14 05:26:35;;;;;;;12.48;9.07;;;;;;;19.56;74.02;100383.09;1625447;54;20094;-80
2021/08/14 05:28:08;;;;;;;15.27;8.90;;;;;;;19.57;73.69;100382.06;1625286;54;20057;-80
2021/08/14 05:29:43;;;;;;;11.05;8.10;;;;;;;19.55;73.95;100386.88;1625263;47;20077;-79
2021/08/14 05:31:18;;;;;;;12.98;7.50;;;;;;;19.58;74.01;100384.59;1625544;54;20034;-79
2021/08/14 05:32:51;;;;;;;14.45;9.35;;;;;;;19.63;73.62;100390.25;1628820;47;20072;-79
2021/08/14 05:34:28;;;;;;;12.65;8.65;;;;;;;19.61;73.73;100386.91;1627893;47;20026;-79
2021/08/14 05:36:02;;;;;;;15.18;8.98;;;;;;;19.59;73.68;100388.13;1628574;54;20042;-79
2021/08/14 05:37:37;;;;;;;13.38;8.57;;;;;;;19.58;73.70;100386.47;1629080;47;20038;-80
2021/08/14 05:39:11;;;;;;;13.65;9.50;;;;;;;19.62;73.64;100387.75;1629158;47;20033;-79
2021/08/14 05:40:45;;;;;;;12.85;7.80;;;;;;;19.59;73.71;100383.56;1629394;47;20042;-79
2021/08/14 05:42:18;;;;;;;11.63;8.57;;;;;;;19.61;73.45;100383.38;1628923;54;20050;-78
2021/08/14 05:43:52;;;;;;;16.45;8.80;;;;;;;19.63;73.77;100384.00;1628678;54;20129;-79
2021/08/14 05:45:26;;;;;;;14.00;9.00;;;;;;;19.69;73.53;100385.09;1629215;47;20030;-79
2021/08/14 05:46:59;;;;;;;12.10;8.55;;;;;;;19.71;73.30;100385.72;1628693;54;20094;-79
2021/08/14 05:48:33;;;;;;;11.13;8.98;;;;;;;19.74;73.18;100383.47;1628931;47;20042;-79
2021/08/14 05:50:08;;;;;;;11.70;7.93;;;;;;;19.77;73.19;100395.81;1629264;31;20644;-77
2021/08/14 05:51:42;;;;;;;13.48;9.27;;;;;;;19.75;73.06;100390.56;1628546;54;20030;-79
2021/08/14 05:53:18;;;;;;;10.48;8.05;;;;;;;19.79;73.11;100397.28;1628826;47;20045;-79
2021/08/14 05:54:52;;;;;;;14.90;8.48;;;;;;;19.79;73.29;100391.00;1628923;54;20026;-78
2021/08/14 05:56:26;;;;;;;9.85;7.25;;;;;;;19.80;73.07;100381.84;1628955;47;20030;-78
2021/08/14 05:57:59;;;;;;;13.05;7.65;;;;;;;19.85;72.86;100392.97;1628704;51;20030;-79
2021/08/14 05:59:33;;;;;;;15.15;7.97;;;;;;;19.90;73.00;100386.97;1629292;54;20061;-79
2021/08/14 06:01:07;;;;;;;12.48;7.60;;;;;;;19.93;72.54;100378.44;1628895;54;20038;-79
2021/08/14 06:02:41;;;;;;;13.02;8.52;;;;;;;19.96;72.87;100383.44;1628360;47;20035;-79
2021/08/14 06:04:14;;;;;;;11.88;8.88;;;;;;;19.99;72.44;100383.06;1629374;47;20034;-79
2021/08/14 06:05:48;;;;;;;12.20;8.10;;;;;;;20.03;72.39;100378.88;1628870;54;20121;-77
2021/08/14 06:07:22;;;;;;;10.57;8.23;;;;;;;20.06;72.16;100383.94;1629086;54;20094;-79
2021/08/14 06:08:54;;;;;;;13.10;8.80;;;;;;;20.05;72.51;100382.25;1627938;47;20038;-79
2021/08/14 06:10:28;;;;;;;12.98;7.75;;;;;;;20.08;72.40;100383.72;1626493;47;20030;-78
2021/08/14 06:12:02;;;;;;;12.48;8.32;;;;;;;20.13;72.21;100383.13;1629104;47;20030;-77
2021/08/14 06:13:35;;;;;;;11.88;8.80;;;;;;;20.16;72.21;100391.72;1628338;47;20038;-77
2021/08/14 06:15:10;;;;;;;11.63;8.27;;;;;;;20.20;72.01;100378.59;1629264;54;20062;-78
2021/08/14 06:16:44;;;;;;;13.38;8.57;;;;;;;20.27;72.03;100387.59;1629734;47;20120;-77
2021/08/14 06:18:17;;;;;;;12.93;9.05;;;;;;;20.30;71.65;100392.63;1629636;47;20073;-77
2021/08/14 06:19:51;;;;;;;14.82;9.73;;;;;;;20.35;71.73;100392.84;1629528;47;20042;-77
2021/08/14 06:21:28;;;;;;;13.18;8.18;;;;;;;20.39;71.68;100386.00;1630331;47;20042;-78
2021/08/14 06:23:01;;;;;;;15.27;8.73;;;;;;;20.45;71.64;100395.19;1629277;47;20069;-77
2021/08/14 06:24:36;;;;;;;14.82;7.85;;;;;;;20.48;71.31;100396.69;1629046;54;20050;-77
2021/08/14 06:26:10;;;;;;;12.13;8.32;;;;;;;20.50;71.40;100384.59;1628993;46;20056;-79
2021/08/14 06:27:44;;;;;;;12.82;8.65;;;;;;;20.54;70.98;100385.00;1629982;47;20050;-78
2021/08/14 06:29:18;;;;;;;14.35;8.32;;;;;;;20.59;70.84;100382.53;1628719;47;20499;-78
2021/08/14 06:30:51;;;;;;;10.48;7.97;;;;;;;20.65;71.06;100386.28;1629259;47;20038;-77
2021/08/14 06:32:25;;;;;;;14.32;8.25;;;;;;;20.68;71.10;100391.31;1629482;47;20042;-77
2021/08/14 06:33:59;;;;;;;12.20;8.45;;;;;;;20.70;70.95;100386.53;1629151;47;20061;-78
2021/08/14 06:35:32;;;;;;;12.77;8.30;;;;;;;20.71;70.96;100394.47;1628696;46;20089;-78
2021/08/14 06:37:06;;;;;;;11.10;7.88;;;;;;;20.73;70.64;100381.56;1628645;54;20062;-77
2021/08/14 06:38:40;;;;;;;13.20;8.65;;;;;;;20.79;70.46;100390.78;1628107;54;20080;-79
2021/08/14 06:40:16;;;;;;;13.88;8.32;;;;;;;20.84;70.64;100384.75;1628540;47;20102;-78
2021/08/14 06:41:50;;;;;;;12.27;7.93;;;;;;;20.92;70.26;100381.00;1627836;46;20112;-79
2021/08/14 06:43:23;;;;;;;14.05;8.43;;;;;;;20.99;70.26;100390.81;1626903;47;20050;-78
2021/08/14 06:44:57;;;;;;;12.02;9.50;;;;;;;21.03;70.06;100378.50;1627144;54;20094;-79
2021/08/14 06:46:31;;;;;;;14.18;9.02;;;;;;;21.10;69.77;100383.13;1626413;47;20086;-79
2021/08/14 06:48:04;;;;;;;12.70;9.23;;;;;;;21.15;69.57;100375.19;1628471;54;20157;-78
2021/08/14 06:49:38;;;;;;;13.02;8.75;;;;;;;21.22;69.45;100380.63;1625777;47;20114;-78
2021/08/14 06:51:15;;;;;;;10.80;7.75;;;;;;;21.30;69.14;100373.13;1628291;47;20615;-79
2021/08/14 06:52:56;;;;;;;14.63;9.23;;;;;;;21.40;69.05;100385.47;1625989;54;20041;-78
2021/08/14 06:54:32;;;;;;;13.48;9.25;;;;;;;21.40;69.18;100385.47;1627189;47;20054;-79
2021/08/14 06:56:11;;;;;;;13.18;9.27;;;;;;;21.47;68.60;100378.13;1628958;54;20069;-78
2021/08/14 06:57:45;;;;;;;10.93;8.70;;;;;;;21.52;68.88;100378.38;1629914;54;20058;-78
2021/08/14 06:59:19;;;;;;;11.90;8.80;;;;;;;21.59;68.23;100376.50;1628842;47;20039;-78
2021/08/14 07:00:53;;;;;;;11.75;7.80;;;;;;;21.62;68.40;100373.38;1629093;47;20061;-77
2021/08/14 07:02:27;;;;;;;11.82;9.07;;;;;;;21.68;67.96;100379.00;1628725;47;20074;-77
2021/08/14 07:04:01;;;;;;;13.98;8.80;;;;;;;21.72;67.94;100374.84;1629446;47;20038;-78
2021/08/14 07:05:35;;;;;;;11.57;9.13;;;;;;;21.80;67.67;100378.16;1629456;47;20061;-78
2021/08/14 07:07:09;;;;;;;12.48;7.90;;;;;;;21.86;67.55;100371.03;1629175;47;20050;-78
2021/08/14 07:08:42;;;;;;;10.77;7.82;;;;;;;21.95;67.31;100380.66;1628402;47;20038;-79
2021/08/14 07:10:16;;;;;;;10.20;8.02;;;;;;;21.97;67.28;100367.69;1626281;54;20053;-79
2021/08/14 07:11:51;;;;;;;13.63;9.10;;;;;;;22.05;67.01;100373.94;1629943;47;20042;-78
2021/08/14 07:13:26;;;;;;;10.07;7.95;;;;;;;22.11;67.15;100373.06;1628438;47;20050;-80